Time;durP1;ratioP1;P1;durP2;ratioP2;P2;SDS_P1;SDS_P2;PMS_P1;PMS_P2;Temp;Humidity;BMP_temperature;BMP_pressure;BME280_temperature;BME280_humidity;BME280_pressure;Samples;Min_cycle;Max_cycle;Signal;HPM_P1;HPM_P2
2022/05/26 00:01:12;;;;;;;1.23;0.47;;;13.70;66.80;13.70;100655.00;;;;4955113;28;109336;-66
2022/05/26 00:03:41;;;;;;;3.20;0.30;;;13.70;66.90;13.70;100651.00;;;;4954791;28;88597;-66
2022/05/26 00:06:10;;;;;;;0.10;0.10;;;13.70;67.20;13.70;100654.00;;;;4970926;28;87917;-66
2022/05/26 00:08:37;;;;;;;0.43;0.40;;;13.70;67.20;13.80;100655.00;;;;4955304;28;87714;-67
2022/05/26 00:11:10;;;;;;;0.70;0.40;;;13.70;67.40;13.80;100652.00;;;;4956371;28;87879;-67
2022/05/26 00:13:38;;;;;;;1.27;0.67;;;13.70;67.80;13.80;100655.00;;;;4935947;28;88320;-66
2022/05/26 00:16:05;;;;;;;0.20;0.20;;;13.70;68.20;13.80;100656.00;;;;4954834;28;112272;-66
2022/05/26 00:18:31;;;;;;;1.63;0.40;;;13.70;68.60;13.80;100659.00;;;;4920581;28;87191;-65
2022/05/26 00:20:57;;;;;;;0.50;0.50;;;13.80;69.10;13.90;100655.00;;;;4955683;28;88778;-66
2022/05/26 00:23:23;;;;;;;0.33;0.33;;;13.80;69.20;13.90;100653.00;;;;4954568;28;117521;-66
2022/05/26 00:26:04;;;;;;;1.00;0.87;;;13.80;69.40;13.90;100648.00;;;;4953341;28;117439;-67
2022/05/26 00:28:31;;;;;;;0.30;0.27;;;13.90;69.90;14.00;100650.00;;;;4936009;28;87769;-67
2022/05/26 00:30:57;;;;;;;0.43;0.30;;;13.90;70.10;14.00;100648.00;;;;4948931;28;87839;-67
2022/05/26 00:33:23;;;;;;;2.17;0.53;;;13.90;70.10;14.10;100649.00;;;;4954913;28;88415;-67
2022/05/26 00:35:49;;;;;;;1.07;0.43;;;14.00;70.30;14.10;100650.00;;;;4937940;28;87900;-68
2022/05/26 00:38:15;;;;;;;0.30;0.30;;;14.00;70.50;14.20;100652.00;;;;4955566;28;87569;-67
2022/05/26 00:40:44;;;;;;;0.40;0.40;;;14.10;70.60;14.20;100647.00;;;;4954845;28;89821;-67
2022/05/26 00:43:10;;;;;;;2.17;0.80;;;14.10;70.50;14.30;100654.00;;;;4936696;28;87414;-66
2022/05/26 00:45:43;;;;;;;0.60;0.60;;;14.10;70.70;14.30;100655.00;;;;4959860;28;87934;-66
2022/05/26 00:48:18;;;;;;;1.07;0.40;;;14.20;70.90;14.30;100650.00;;;;4950246;28;87971;-66
2022/05/26 00:51:00;;;;;;;0.27;0.27;;;14.20;71.00;14.40;100648.00;;;;4954962;28;88888;-66
2022/05/26 00:53:34;;;;;;;0.50;0.50;;;14.30;71.00;14.40;100641.00;;;;4936601;28;88744;-66
2022/05/26 00:56:18;;;;;;;0.50;0.50;;;14.30;71.10;14.50;100642.00;;;;4968942;28;87785;-67
2022/05/26 00:58:49;;;;;;;0.40;0.40;;;14.40;71.20;14.50;100644.00;;;;4959443;28;87788;-68
2022/05/26 01:01:16;;;;;;;0.83;0.37;;;14.40;71.20;14.50;100650.00;;;;4954911;28;100435;-67
2022/05/26 01:03:52;;;;;;;2.50;0.63;;;14.50;71.40;14.60;100640.00;;;;4968402;28;118988;-67
2022/05/26 01:06:52;;;;;;;0.50;0.10;;;14.50;71.40;14.60;100639.00;;;;4936156;28;105312;-65
2022/05/26 01:09:20;;;;;;;0.40;0.40;;;14.50;71.50;14.60;100640.00;;;;4968940;28;101046;-67
2022/05/26 01:11:46;;;;;;;0.47;0.47;;;14.50;71.70;14.70;100635.00;;;;4955238;28;87884;-65
2022/05/26 01:14:16;;;;;;;2.77;0.90;;;14.60;72.50;14.70;100627.00;;;;4953720;28;90289;-66
2022/05/26 01:17:29;;;;;;;0.40;0.38;;;14.60;71.80;14.70;100634.00;;;;4954347;28;88802;-66
2022/05/26 01:20:32;;;;;;;0.47;0.30;;;14.60;71.90;14.80;100637.00;;;;4937807;28;88041;-66
2022/05/26 01:23:12;;;;;;;1.03;0.70;;;14.70;71.80;14.80;100634.00;;;;4927681;28;87862;-66
2022/05/26 01:26:18;;;;;;;0.50;0.50;;;14.70;71.90;14.80;100641.00;;;;4954558;28;88583;-67
2022/05/26 01:29:06;;;;;;;0.53;0.53;;;14.80;71.80;14.90;100639.00;;;;4953163;28;87998;-67
2022/05/26 01:31:56;;;;;;;0.27;0.27;;;14.80;71.80;14.90;100643.00;;;;4954548;28;95017;-67
2022/05/26 01:35:22;;;;;;;0.40;0.40;;;14.80;71.80;14.90;100645.00;;;;4954463;28;87861;-66
2022/05/26 01:38:10;;;;;;;0.20;0.20;;;14.90;72.00;15.00;100641.00;;;;4947758;28;87633;-66
2022/05/26 01:41:05;;;;;;;0.10;0.10;;;14.90;71.90;15.00;100648.00;;;;4957021;28;87778;-66
2022/05/26 01:44:08;;;;;;;0.73;0.73;;;14.90;71.80;15.00;100643.00;;;;4973111;28;88177;-66
2022/05/26 01:46:43;;;;;;;1.33;0.40;;;14.90;71.80;15.00;100641.00;;;;4960960;28;88788;-65
2022/05/26 01:49:25;;;;;;;0.30;0.30;;;14.90;71.90;15.00;100635.00;;;;4942338;28;88095;-66
2022/05/26 01:51:55;;;;;;;0.45;0.45;;;15.00;71.90;15.10;100638.00;;;;4972921;28;88192;-68
2022/05/26 01:54:39;;;;;;;0.47;0.30;;;15.00;72.00;15.10;100641.00;;;;4972472;28;87867;-68
2022/05/26 01:57:43;;;;;;;0.50;0.50;;;15.00;71.80;15.10;100642.00;;;;4971964;28;101598;-65
2022/05/26 02:00:15;;;;;;;0.30;0.30;;;15.00;71.70;15.10;100634.00;;;;4937152;28;88265;-66
2022/05/26 02:03:05;;;;;;;0.40;0.40;;;15.00;71.50;15.20;100631.00;;;;4921444;28;88454;-66
2022/05/26 02:05:42;;;;;;;0.50;0.30;;;15.10;71.30;15.20;100645.00;;;;4973070;28;87246;-65
2022/05/26 02:08:20;;;;;;;0.30;0.30;;;15.10;71.10;15.20;100635.00;;;;4971659;28;88075;-66
2022/05/26 02:11:13;;;;;;;0.40;0.40;;;15.10;70.80;15.30;100629.00;;;;4957498;28;88905;-65
2022/05/26 02:13:48;;;;;;;0.57;0.23;;;15.20;70.60;15.30;100636.00;;;;4971947;28;89528;-65
2022/05/26 02:16:22;;;;;;;0.40;0.40;;;15.20;70.30;15.30;100632.00;;;;4970906;28;100526;-65
2022/05/26 02:18:58;;;;;;;0.30;0.30;;;15.20;70.00;15.40;100623.00;;;;4972204;28;87806;-66
2022/05/26 02:21:56;;;;;;;0.85;0.68;;;15.20;69.70;15.40;100630.00;;;;4957447;28;87848;-65
2022/05/26 02:24:30;;;;;;;0.40;0.40;;;15.30;69.30;15.50;100629.00;;;;4962830;28;109913;-67
2022/05/26 02:26:55;;;;;;;0.30;0.30;;;15.30;69.10;15.50;100627.00;;;;4972240;28;87897;-66
2022/05/26 02:32:07;;;;;;;0.25;0.22;;;15.40;68.50;15.60;100636.00;;;;4954833;28;86843;-66
2022/05/26 02:34:34;;;;;;;4.22;0.30;;;15.40;68.40;15.60;100630.00;;;;4938245;28;106467;-67
2022/05/26 02:37:01;;;;;;;2.40;0.73;;;15.50;68.30;15.60;100627.00;;;;4937477;28;88021;-66
2022/05/26 02:39:27;;;;;;;0.52;0.50;;;15.50;68.00;15.60;100629.00;;;;4956130;28;104444;-66
2022/05/26 02:41:56;;;;;;;0.75;0.30;;;15.50;67.90;15.70;100633.00;;;;4956955;28;110663;-66
2022/05/26 02:44:26;;;;;;;0.35;0.35;;;15.50;67.80;15.70;100626.00;;;;4948645;28;117454;-67
2022/05/26 02:47:24;;;;;;;1.13;0.50;;;15.50;67.70;15.60;100631.00;;;;4972649;28;103131;-67
2022/05/26 02:49:56;;;;;;;0.20;0.20;;;15.60;67.60;15.70;100638.00;;;;4934784;28;97585;-66
2022/05/26 02:52:48;;;;;;;0.98;0.52;;;15.50;67.50;15.70;100634.00;;;;4941379;28;101545;-66
2022/05/26 02:55:48;;;;;;;0.38;0.30;;;15.50;67.50;15.60;100630.00;;;;4931046;28;102043;-67
2022/05/26 02:58:36;;;;;;;0.38;0.32;;;15.60;67.50;15.60;100643.00;;;;4948165;28;87194;-66
2022/05/26 03:01:33;;;;;;;0.40;0.40;;;15.60;67.50;15.60;100635.00;;;;4971742;28;95903;-66
2022/05/26 03:04:05;;;;;;;0.17;0.17;;;15.50;67.40;15.60;100630.00;;;;4970718;28;88166;-66
2022/05/26 03:06:50;;;;;;;0.30;0.30;;;15.50;67.70;15.60;100632.00;;;;4956711;28;88812;-66
2022/05/26 03:09:17;;;;;;;0.98;0.60;;;15.50;68.00;15.60;100628.00;;;;4937235;28;98404;-66
2022/05/26 03:11:57;;;;;;;0.90;0.60;;;15.50;67.90;15.60;100635.00;;;;4938536;28;88072;-67
2022/05/26 03:14:25;;;;;;;0.20;0.20;;;15.50;67.80;15.60;100638.00;;;;4956387;28;96687;-66
2022/05/26 03:16:51;;;;;;;0.52;0.30;;;15.50;67.80;15.50;100632.00;;;;4956744;28;88992;-66
2022/05/26 03:19:17;;;;;;;0.47;0.32;;;15.40;67.90;15.50;100628.00;;;;4954933;28;111471;-66
2022/05/26 03:21:44;;;;;;;0.38;0.32;;;15.40;67.90;15.50;100622.00;;;;4955796;28;87694;-65
2022/05/26 03:24:10;;;;;;;1.02;0.30;;;15.40;68.00;15.50;100631.00;;;;4955453;28;108994;-68
2022/05/26 03:26:36;;;;;;;0.43;0.20;;;15.40;68.10;15.50;100631.00;;;;4956139;28;102089;-68
2022/05/26 03:29:04;;;;;;;0.43;0.43;;;15.40;68.20;15.50;100632.00;;;;4955671;28;96607;-66
2022/05/26 03:31:30;;;;;;;0.63;0.20;;;15.30;68.20;15.50;100631.00;;;;4937764;28;88661;-66
2022/05/26 03:42:13;;;;;;;0.85;0.70;;;15.40;68.70;15.40;100641.00;;;;4952577;28;87800;-67
2022/05/26 03:44:40;;;;;;;0.68;0.40;;;15.30;68.70;15.40;100644.00;;;;4937409;28;100280;-66
2022/05/26 03:47:06;;;;;;;0.22;0.20;;;15.30;68.70;15.40;100641.00;;;;4955288;28;87841;-66
2022/05/26 03:49:32;;;;;;;2.25;0.40;;;15.30;68.80;15.40;100647.00;;;;4938067;28;87149;-67
2022/05/26 03:51:58;;;;;;;0.52;0.52;;;15.30;68.90;15.40;100652.00;;;;4955540;28;105589;-67
2022/05/26 03:54:25;;;;;;;6.20;0.30;;;15.40;69.00;15.40;100653.00;;;;4955974;28;87800;-67
2022/05/26 03:56:51;;;;;;;0.20;0.20;;;15.30;69.00;15.50;100650.00;;;;4955186;28;89013;-66
2022/05/26 03:59:17;;;;;;;0.75;0.55;;;15.30;69.00;15.50;100650.00;;;;4954272;28;109630;-68
2022/05/26 04:01:43;;;;;;;0.50;0.40;;;15.40;69.10;15.50;100661.00;;;;4955967;28;87618;-66
2022/05/26 04:04:09;;;;;;;0.32;0.30;;;15.40;69.30;15.50;100660.00;;;;4955587;28;89039;-67
2022/05/26 04:06:36;;;;;;;0.20;0.20;;;15.30;69.50;15.50;100668.00;;;;4956136;28;101275;-66
2022/05/26 04:09:03;;;;;;;0.20;0.20;;;15.40;70.00;15.50;100671.00;;;;4955948;28;87821;-66
2022/05/26 04:11:29;;;;;;;2.47;0.32;;;15.40;69.90;15.50;100664.00;;;;4955838;28;88731;-66
2022/05/26 04:13:55;;;;;;;0.32;0.32;;;15.40;70.10;15.60;100672.00;;;;4956349;28;87600;-66
2022/05/26 04:16:22;;;;;;;0.20;0.20;;;15.40;70.40;15.60;100665.00;;;;4954458;28;115255;-66
2022/05/26 04:18:48;;;;;;;0.38;0.38;;;15.50;70.30;15.60;100661.00;;;;4953930;28;102245;-66
2022/05/26 04:21:14;;;;;;;1.45;0.40;;;15.50;70.50;15.60;100675.00;;;;4955184;28;88827;-66
2022/05/26 04:23:41;;;;;;;0.30;0.30;;;15.50;70.20;15.70;100668.00;;;;4954615;28;115873;-66
2022/05/26 04:26:09;;;;;;;0.55;0.38;;;15.60;70.00;15.80;100670.00;;;;4955260;28;107379;-66
2022/05/26 04:28:35;;;;;;;0.60;0.45;;;15.60;69.90;15.80;100673.00;;;;4954902;28;89475;-67
2022/05/26 04:31:02;;;;;;;1.00;0.30;;;15.60;69.70;15.90;100685.00;;;;4955984;28;87590;-66
2022/05/26 04:33:28;;;;;;;0.52;0.40;;;15.70;69.50;16.00;100674.00;;;;4954812;28;89027;-67
2022/05/26 04:35:54;;;;;;;0.68;0.32;;;15.80;69.50;16.10;100682.00;;;;4955637;28;87935;-66
2022/05/26 04:38:20;;;;;;;0.40;0.40;;;15.90;69.30;16.10;100677.00;;;;4954801;28;100438;-66
2022/05/26 04:40:59;;;;;;;0.70;0.47;;;15.90;69.10;16.20;100676.00;;;;4954877;28;108975;-67
2022/05/26 04:43:25;;;;;;;0.70;0.60;;;16.00;69.10;16.20;100679.00;;;;4936538;28;89910;-67
2022/05/26 04:45:51;;;;;;;0.40;0.40;;;16.10;69.00;16.30;100674.00;;;;4961734;28;108258;-68
2022/05/26 04:48:17;;;;;;;1.75;0.60;;;16.10;68.80;16.30;100681.00;;;;4967177;28;87812;-66
2022/05/26 04:50:43;;;;;;;0.32;0.30;;;16.20;68.60;16.40;100686.00;;;;4955826;28;87634;-67
2022/05/26 04:53:09;;;;;;;1.20;0.30;;;16.30;68.60;16.50;100686.00;;;;4954072;28;107387;-67
2022/05/26 04:55:34;;;;;;;0.20;0.20;;;16.30;68.30;16.50;100687.00;;;;4954243;28;116894;-66
2022/05/26 04:58:00;;;;;;;0.43;0.30;;;16.40;68.40;16.60;100687.00;;;;4954147;28;110334;-67
2022/05/26 05:00:26;;;;;;;0.40;0.30;;;16.40;68.20;16.70;100688.00;;;;4954334;28;109537;-67
2022/05/26 05:02:53;;;;;;;0.38;0.30;;;16.50;67.90;16.70;100690.00;;;;4954695;28;116063;-67
2022/05/26 05:05:19;;;;;;;0.60;0.40;;;16.50;67.70;16.80;100698.00;;;;4955103;28;88051;-67
2022/05/26 05:07:45;;;;;;;0.50;0.50;;;16.60;67.60;16.80;100689.00;;;;4951290;28;88100;-67
2022/05/26 05:10:11;;;;;;;0.32;0.32;;;16.70;67.60;16.90;100695.00;;;;4969670;28;108913;-66
2022/05/26 05:12:36;;;;;;;0.30;0.30;;;16.70;67.30;17.00;100693.00;;;;4968755;28;88975;-66
2022/05/26 05:15:09;;;;;;;1.27;0.28;;;16.80;67.30;17.00;100697.00;;;;4961512;28;88051;-66
2022/05/26 05:17:34;;;;;;;0.85;0.22;;;16.90;67.10;17.10;100699.00;;;;4955577;28;87629;-67
2022/05/26 05:20:00;;;;;;;0.43;0.32;;;16.90;66.80;17.10;100698.00;;;;4968205;28;87917;-67
2022/05/26 05:22:34;;;;;;;0.60;0.20;;;17.00;66.60;17.20;100694.00;;;;4967504;28;101773;-66
2022/05/26 05:25:21;;;;;;;0.10;0.10;;;17.00;66.60;17.30;100710.00;;;;4960666;28;97078;-66
2022/05/26 05:27:58;;;;;;;0.20;0.20;;;17.10;66.00;17.40;100709.00;;;;4954056;28;87062;-68
2022/05/26 05:30:31;;;;;;;0.77;0.57;;;17.20;65.90;17.40;100708.00;;;;4950936;28;98570;-67
2022/05/26 05:33:09;;;;;;;0.30;0.30;;;17.30;65.50;17.50;100713.00;;;;4943250;28;108842;-66
2022/05/26 05:36:11;;;;;;;0.50;0.30;;;17.40;65.70;17.70;100712.00;;;;4973748;28;88759;-67
2022/05/26 05:38:39;;;;;;;0.50;0.22;;;17.50;65.50;17.90;100718.00;;;;4951835;28;87894;-69
2022/05/26 05:41:07;;;;;;;1.00;0.57;;;17.70;65.10;18.10;100721.00;;;;4971558;28;87865;-66
2022/05/26 05:43:35;;;;;;;0.10;0.10;;;17.80;64.90;18.20;100712.00;;;;4971393;28;88027;-68
2022/05/26 05:46:01;;;;;;;0.65;0.40;;;18.00;63.90;18.30;100720.00;;;;4956054;28;87827;-66
2022/05/26 05:48:27;;;;;;;0.32;0.30;;;18.10;63.40;18.40;100736.00;;;;4966572;28;87623;-66
2022/05/26 05:50:54;;;;;;;0.10;0.10;;;18.20;63.20;18.40;100727.00;;;;4952648;28;108608;-67
2022/05/26 05:53:20;;;;;;;0.40;0.40;;;18.30;62.80;18.50;100728.00;;;;4967404;28;87472;-66
2022/05/26 05:55:46;;;;;;;4.30;0.35;;;18.30;62.40;18.50;100741.00;;;;4974597;28;108182;-66
2022/05/26 05:58:12;;;;;;;0.20;0.20;;;18.30;62.20;18.50;100730.00;;;;4966601;28;99705;-67
2022/05/26 06:00:40;;;;;;;1.30;0.50;;;18.30;62.00;18.50;100735.00;;;;4974249;28;88726;-66
2022/05/26 06:03:06;;;;;;;0.43;0.32;;;18.40;61.80;18.50;100736.00;;;;4969904;28;88633;-66
2022/05/26 06:05:32;;;;;;;0.40;0.20;;;18.40;61.80;18.50;100734.00;;;;4974168;28;88270;-66
2022/05/26 06:07:58;;;;;;;0.40;0.40;;;18.30;61.80;18.50;100738.00;;;;4948464;28;87948;-67
2022/05/26 06:10:25;;;;;;;0.28;0.28;;;18.30;61.60;18.50;100740.00;;;;4970641;28;87744;-66
2022/05/26 06:12:51;;;;;;;0.20;0.20;;;18.40;61.60;18.60;100734.00;;;;4962356;28;109857;-67
2022/05/26 06:15:18;;;;;;;1.05;0.50;;;18.40;61.50;18.60;100738.00;;;;4986216;28;118034;-66
2022/05/26 06:17:44;;;;;;;0.30;0.30;;;18.40;61.10;18.60;100734.00;;;;4971966;28;86760;-67
2022/05/26 06:20:13;;;;;;;0.38;0.20;;;18.40;61.40;18.70;100736.00;;;;4967321;28;87982;-66
2022/05/26 06:22:47;;;;;;;5.88;0.40;;;18.50;61.30;18.80;100732.00;;;;4949755;28;87999;-67
2022/05/26 06:25:16;;;;;;;0.28;0.28;;;18.60;60.80;19.00;100742.00;;;;4950896;28;89026;-66
2022/05/26 06:30:30;;;;;;;1.65;0.20;;;18.90;60.80;19.30;100742.00;;;;4942184;28;87661;-66
2022/05/26 06:38:41;;;;;;;0.50;0.20;;;19.40;59.30;19.60;100754.00;;;;4966963;28;88830;-66
2022/05/26 06:44:03;;;;;;;0.35;0.35;;;19.40;58.60;19.50;100765.00;;;;4946744;28;87502;-66
2022/05/26 06:46:29;;;;;;;0.52;0.38;;;19.30;58.60;19.40;100759.00;;;;4952692;28;88082;-67
2022/05/26 06:48:55;;;;;;;0.57;0.40;;;19.30;58.90;19.40;100765.00;;;;4950678;28;88196;-66
2022/05/26 06:51:26;;;;;;;1.00;0.35;;;19.20;58.90;19.30;100766.00;;;;4947191;28;88779;-67
2022/05/26 06:53:55;;;;;;;0.20;0.20;;;19.20;59.20;19.40;100769.00;;;;4945999;28;88685;-66
2022/05/26 06:56:21;;;;;;;0.10;0.10;;;19.20;59.40;19.40;100770.00;;;;4952485;28;102563;-66
2022/05/26 06:58:47;;;;;;;0.30;0.28;;;19.20;59.40;19.50;100770.00;;;;4943583;28;109967;-65
2022/05/26 07:01:15;;;;;;;0.30;0.30;;;19.30;59.40;19.60;100758.00;;;;4947085;28;108229;-65
2022/05/26 07:03:42;;;;;;;0.52;0.52;;;19.40;59.40;19.70;100767.00;;;;4949752;28;88057;-65
2022/05/26 07:06:18;;;;;;;0.32;0.30;;;19.50;59.40;19.70;100772.00;;;;4940723;28;89727;-65
2022/05/26 07:08:48;;;;;;;0.50;0.22;;;19.50;59.40;19.70;100766.00;;;;4946182;28;87165;-67
2022/05/26 07:11:15;;;;;;;0.50;0.50;;;19.50;59.20;19.70;100759.00;;;;4949045;28;103690;-65
2022/05/26 07:13:41;;;;;;;0.20;0.20;;;19.50;59.10;19.80;100760.00;;;;4947483;28;88450;-66
2022/05/26 07:16:09;;;;;;;1.42;0.70;;;19.60;58.80;19.90;100764.00;;;;4947013;28;105529;-65
2022/05/26 07:18:37;;;;;;;0.40;0.40;;;19.60;58.70;19.90;100764.00;;;;4953045;28;87834;-65
2022/05/26 07:21:06;;;;;;;0.40;0.40;;;19.60;58.30;20.00;100776.00;;;;4952984;28;87930;-65
2022/05/26 07:23:31;;;;;;;1.73;0.43;;;19.80;58.50;20.20;100777.00;;;;4938980;28;89213;-66
2022/05/26 07:26:10;;;;;;;0.20;0.20;;;19.90;58.60;20.30;100773.00;;;;4968219;28;88288;-66
2022/05/26 07:28:40;;;;;;;0.30;0.30;;;20.00;58.30;20.40;100777.00;;;;4960471;28;87770;-66
2022/05/26 07:31:07;;;;;;;0.35;0.35;;;20.10;58.40;20.50;100776.00;;;;4970665;28;88152;-66
2022/05/26 07:33:33;;;;;;;0.65;0.60;;;20.20;58.40;20.70;100788.00;;;;4969356;28;87363;-66
2022/05/26 07:35:59;;;;;;;0.73;0.40;;;20.40;57.70;20.70;100778.00;;;;4972417;28;87788;-65
2022/05/26 07:41:19;;;;;;;2.88;0.70;;;20.50;57.10;20.90;100778.00;;;;4968166;28;89065;-66
2022/05/26 07:43:58;;;;;;;0.35;0.35;;;20.60;56.80;20.80;100790.00;;;;4967473;28;89044;-66
2022/05/26 07:46:25;;;;;;;1.33;0.40;;;20.60;56.60;20.80;100774.00;;;;4971279;28;106551;-66
2022/05/26 07:48:52;;;;;;;0.75;0.63;;;20.60;56.30;20.70;100788.00;;;;4950062;28;95487;-65
2022/05/26 07:51:24;;;;;;;2.15;0.40;;;20.50;56.40;20.60;100803.00;;;;4967097;28;110540;-65
2022/05/26 07:53:50;;;;;;;0.20;0.20;;;20.40;56.80;20.60;100795.00;;;;4972258;28;87924;-65
2022/05/26 07:56:18;;;;;;;0.10;0.10;;;20.40;56.80;20.60;100806.00;;;;4971058;28;117214;-65
2022/05/26 07:58:44;;;;;;;0.30;0.30;;;20.40;56.80;20.60;100809.00;;;;4947163;28;87387;-65
2022/05/26 08:01:11;;;;;;;1.30;0.50;;;20.40;56.90;20.50;100814.00;;;;4964142;28;108141;-65
2022/05/26 08:03:38;;;;;;;0.47;0.30;;;20.30;56.70;20.50;100816.00;;;;4969498;28;99380;-65
2022/05/26 08:06:05;;;;;;;0.75;0.68;;;20.30;57.00;20.50;100797.00;;;;4971450;28;89081;-66
2022/05/26 08:08:33;;;;;;;0.40;0.40;;;20.30;57.10;20.50;100816.00;;;;4965396;28;102536;-65
2022/05/26 08:10:58;;;;;;;0.20;0.20;;;20.30;57.30;20.40;100816.00;;;;4970491;28;103378;-65
2022/05/26 08:13:24;;;;;;;2.13;0.57;;;20.20;57.10;20.30;100819.00;;;;4950091;28;116891;-67
2022/05/26 08:15:50;;;;;;;0.43;0.40;;;20.20;57.20;20.30;100816.00;;;;4972200;28;88040;-67
2022/05/26 08:18:16;;;;;;;0.28;0.15;;;20.10;57.50;20.40;100817.00;;;;4968959;28;108648;-66
2022/05/26 08:20:42;;;;;;;0.75;0.40;;;20.10;57.40;20.50;100815.00;;;;4970888;28;102653;-65
2022/05/26 08:23:08;;;;;;;0.90;0.25;;;20.20;57.50;20.60;100823.00;;;;4962967;28;117236;-66
2022/05/26 08:25:34;;;;;;;0.75;0.32;;;20.30;57.60;20.80;100822.00;;;;4962448;28;92626;-67
2022/05/26 08:28:00;;;;;;;0.70;0.40;;;20.50;57.80;20.90;100817.00;;;;4949411;28;88168;-65
2022/05/26 08:30:27;;;;;;;0.70;0.50;;;20.60;57.00;20.80;100819.00;;;;4964180;28;108854;-67
2022/05/26 08:32:55;;;;;;;2.13;0.55;;;20.60;56.70;20.80;100820.00;;;;4964857;28;89190;-66
2022/05/26 08:35:22;;;;;;;0.65;0.45;;;20.40;56.80;20.80;100824.00;;;;4943662;28;89817;-65
2022/05/26 08:37:48;;;;;;;0.47;0.32;;;20.50;57.00;20.70;100825.00;;;;4968797;28;88073;-66
2022/05/26 08:40:34;;;;;;;0.20;0.20;;;20.50;57.00;20.70;100827.00;;;;4963777;28;96791;-66
2022/05/26 08:43:03;;;;;;;1.00;0.50;;;20.50;57.20;20.60;100837.00;;;;4967182;28;88139;-65
2022/05/26 08:45:33;;;;;;;0.30;0.30;;;20.50;57.30;20.60;100829.00;;;;4972187;28;88035;-65
2022/05/26 08:47:59;;;;;;;0.30;0.30;;;20.50;57.30;20.70;100834.00;;;;4948527;28;87499;-66
2022/05/26 08:50:34;;;;;;;0.20;0.20;;;20.50;57.50;20.80;100843.00;;;;4970378;28;108520;-66
2022/05/26 08:53:21;;;;;;;0.40;0.22;;;20.50;57.60;20.90;100836.00;;;;4965319;28;87842;-65
2022/05/26 08:55:51;;;;;;;0.30;0.30;;;20.60;57.50;21.10;100833.00;;;;4946279;28;108106;-66
2022/05/26 08:58:24;;;;;;;0.35;0.35;;;20.80;57.50;21.20;100843.00;;;;4945251;28;87872;-67
2022/05/26 09:00:52;;;;;;;0.32;0.32;;;21.00;57.30;21.30;100850.00;;;;4952491;28;100441;-66
2022/05/26 09:03:20;;;;;;;0.30;0.30;;;21.00;57.20;21.40;100835.00;;;;4947716;28;88099;-66
2022/05/26 09:05:53;;;;;;;1.25;0.60;;;21.10;57.00;21.50;100853.00;;;;4970500;28;117874;-66
2022/05/26 09:14:05;;;;;;;0.57;0.52;;;21.60;56.50;22.00;100851.00;;;;4943023;28;87139;-68
2022/05/26 09:16:38;;;;;;;0.82;0.25;;;21.70;56.40;22.00;100859.00;;;;4969962;28;115416;-68
2022/05/26 09:19:20;;;;;;;0.55;0.25;;;21.80;56.00;22.00;100858.00;;;;4944574;28;103161;-68
2022/05/26 09:21:49;;;;;;;0.32;0.32;;;21.80;56.30;22.00;100861.00;;;;4950036;28;89049;-69
2022/05/26 09:24:31;;;;;;;0.20;0.20;;;21.80;56.40;21.90;100860.00;;;;4964770;28;88718;-69
2022/05/26 09:27:07;;;;;;;0.20;0.20;;;21.70;56.30;21.90;100859.00;;;;4952244;28;87850;-68
2022/05/26 09:29:37;;;;;;;0.88;0.40;;;21.70;56.60;22.00;100855.00;;;;4948356;28;87962;-68
2022/05/26 09:32:05;;;;;;;2.75;0.52;;;21.70;56.10;22.00;100861.00;;;;4967285;28;87867;-69
2022/05/26 09:34:34;;;;;;;0.20;0.20;;;21.70;56.30;22.20;100861.00;;;;4965101;28;89263;-70
2022/05/26 09:37:07;;;;;;;0.88;0.47;;;21.80;56.60;22.40;100857.00;;;;4952665;28;88089;-69
2022/05/26 09:39:39;;;;;;;0.55;0.55;;;22.10;56.10;22.50;100846.00;;;;4943626;28;87111;-68
2022/05/26 09:42:15;;;;;;;0.20;0.15;;;22.30;55.60;22.50;100867.00;;;;4966673;28;87927;-69
2022/05/26 09:44:53;;;;;;;0.40;0.40;;;22.30;55.40;22.50;100866.00;;;;4962839;28;99276;-69
2022/05/26 09:47:29;;;;;;;1.08;0.40;;;22.20;55.20;22.50;100886.00;;;;4947162;28;90178;-71
2022/05/26 09:49:59;;;;;;;0.38;0.35;;;22.30;55.40;22.60;100890.00;;;;4964344;28;87656;-69
2022/05/26 09:52:30;;;;;;;0.52;0.50;;;22.30;55.30;22.50;100879.00;;;;4946416;28;88186;-69
2022/05/26 09:55:24;;;;;;;0.32;0.22;;;22.30;54.90;22.50;100886.00;;;;4952234;28;88796;-69
2022/05/26 09:58:04;;;;;;;0.28;0.28;;;22.30;54.80;22.30;100872.00;;;;4929254;28;90049;-70
2022/05/26 10:00:47;;;;;;;0.43;0.30;;;22.20;55.00;22.30;100893.00;;;;4941878;28;94964;-70
2022/05/26 10:03:31;;;;;;;0.82;0.30;;;22.10;55.40;22.40;100880.00;;;;4949297;28;87797;-69
2022/05/26 10:06:23;;;;;;;0.50;0.35;;;22.20;55.80;22.60;100887.00;;;;4956148;28;87673;-71
2022/05/26 10:09:17;;;;;;;0.65;0.28;;;22.30;55.30;22.70;100885.00;;;;4952472;28;100472;-70
2022/05/26 10:12:11;;;;;;;0.57;0.50;;;22.40;54.60;22.70;100883.00;;;;4972199;28;103106;-69
2022/05/26 10:15:17;;;;;;;0.80;0.47;;;22.50;54.80;22.80;100893.00;;;;4954000;28;89167;-71
2022/05/26 10:17:56;;;;;;;0.30;0.30;;;22.50;54.30;22.90;100882.00;;;;4937945;28;109939;-71
2022/05/26 10:20:34;;;;;;;0.55;0.55;;;22.60;54.20;22.90;100880.00;;;;4973152;28;87842;-69
2022/05/26 10:23:34;;;;;;;0.30;0.30;;;22.70;54.20;23.10;100892.00;;;;4966071;28;88153;-70
2022/05/26 10:26:33;;;;;;;0.40;0.40;;;22.70;53.90;23.20;100873.00;;;;4954669;28;87799;-70
2022/05/26 10:29:08;;;;;;;0.28;0.28;;;22.90;53.50;23.20;100888.00;;;;4944129;28;88353;-70
2022/05/26 10:31:55;;;;;;;0.38;0.25;;;22.90;53.30;23.30;100881.00;;;;4953901;28;88510;-70
2022/05/26 10:35:03;;;;;;;1.10;0.60;;;22.90;53.10;23.50;100881.00;;;;4931203;28;87111;-71
2022/05/26 10:37:58;;;;;;;0.32;0.20;;;23.10;53.30;23.70;100873.00;;;;4947597;28;87857;-69
2022/05/26 10:40:57;;;;;;;0.30;0.30;;;23.30;52.40;23.50;100878.00;;;;4944183;28;87868;-71
2022/05/26 10:43:39;;;;;;;0.30;0.30;;;23.30;51.80;23.20;100872.00;;;;4964723;28;95553;-70
2022/05/26 10:46:07;;;;;;;0.20;0.20;;;23.10;51.60;23.10;100874.00;;;;4951646;28;88098;-70
2022/05/26 10:48:47;;;;;;;0.30;0.30;;;22.90;52.30;23.00;100874.00;;;;4971818;28;87912;-69
2022/05/26 10:51:24;;;;;;;0.57;0.57;;;22.80;52.80;22.90;100880.00;;;;4947026;28;110161;-71
2022/05/26 10:54:03;;;;;;;1.33;0.43;;;22.70;53.00;22.90;100872.00;;;;4940795;28;88864;-71
2022/05/26 10:56:29;;;;;;;0.20;0.20;;;22.70;53.20;22.90;100867.00;;;;4945879;28;101398;-69
2022/05/26 10:59:24;;;;;;;4.57;0.50;;;22.60;53.10;23.10;100859.00;;;;4961309;28;87868;-69
2022/05/26 11:02:11;;;;;;;0.50;0.50;;;22.70;53.30;23.30;100877.00;;;;4960419;28;87148;-69
2022/05/26 11:05:09;;;;;;;0.80;0.38;;;22.90;53.30;23.20;100882.00;;;;4949580;28;101290;-71
2022/05/26 11:07:49;;;;;;;0.38;0.30;;;23.00;53.20;23.00;100872.00;;;;4938303;28;88016;-69
2022/05/26 11:10:28;;;;;;;1.08;0.50;;;22.90;52.70;22.90;100869.00;;;;4969584;28;89073;-71
2022/05/26 11:13:48;;;;;;;0.22;0.22;;;22.70;52.80;22.90;100871.00;;;;4949202;28;88132;-69
2022/05/26 11:19:49;;;;;;;1.02;0.30;;;22.70;53.30;23.10;100872.00;;;;4943609;28;88060;-69
2022/05/26 11:22:16;;;;;;;0.40;0.40;;;22.80;53.20;23.10;100886.00;;;;4972712;28;88038;-71
2022/05/26 11:24:51;;;;;;;0.40;0.35;;;22.90;53.30;23.10;100886.00;;;;4947941;28;88787;-70
2022/05/26 11:27:42;;;;;;;2.05;0.90;;;22.80;53.30;23.00;100893.00;;;;4947349;28;111957;-69
2022/05/26 11:36:34;;;;;;;1.05;0.30;;;23.00;53.10;23.20;100881.00;;;;4963835;28;88177;-70
2022/05/26 11:39:01;;;;;;;1.38;0.60;;;23.00;52.90;23.20;100897.00;;;;4937253;28;90149;-70
2022/05/26 11:41:32;;;;;;;0.25;0.25;;;22.90;53.00;23.40;100900.00;;;;4961776;28;87809;-70
2022/05/26 11:44:10;;;;;;;0.75;0.43;;;23.00;52.90;23.60;100885.00;;;;4947306;28;87915;-71
2022/05/26 11:46:41;;;;;;;0.20;0.20;;;23.20;52.60;23.90;100877.00;;;;4947255;28;88199;-73
2022/05/26 11:49:43;;;;;;;0.30;0.30;;;23.60;52.00;24.10;100887.00;;;;4963102;28;115900;-72
2022/05/26 11:52:45;;;;;;;0.82;0.45;;;23.70;51.50;24.30;100870.00;;;;4972471;28;88094;-69
2022/05/26 11:55:30;;;;;;;0.57;0.45;;;23.90;50.80;24.50;100881.00;;;;4972022;28;89962;-71